OE7AJT-13 Weather Reports


time (UTC)temp
C
wind
direction
speed
KPH
gust
KPH
rain 1hr
cm
rain 24hr
cm
rain mn
cm
humidity
%
barometer
mb
20240614130956 21 0.0 0.0 0.00 0.00 0.00 40 1018.0
20240614125953 20 0.0 0.0 0.00 0.00 0.00 41 1018.0
20240614123948 20 0.0 0.0 0.00 0.00 0.00 44 1018.0
20240614121943 19 0.0 0.0 0.00 0.00 0.00 46 1018.0
20240614120941 19 0.0 0.0 0.00 0.00 0.00 44 1018.0
20240614115937 19 0.0 0.0 0.00 0.00 0.00 46 1018.0
20240614113932 19 0.0 0.0 0.00 0.00 0.00 45 1018.0
20240614112930 18 0.0 0.0 0.00 0.00 0.00 45 1018.0
20240614110925 18 0.0 0.0 0.00 0.00 0.00 45 1018.0
20240614105922 18 0.0 0.0 0.00 0.00 0.00 44 1018.0
20240614104919 18 0.0 0.0 0.00 0.00 0.00 44 1018.0
20240614103917 18 0.0 0.0 0.00 0.00 0.00 44 1018.0
20240614101912 18 0.0 0.0 0.00 0.00 0.00 41 1018.0
20240614095907 18 0.0 0.0 0.00 0.00 0.00 45 1018.0
20240614094904 18 0.0 0.0 0.00 0.00 0.00 44 1018.0
20240614093902 18 0.0 0.0 0.00 0.00 0.00 47 1018.0
20240614092859 17 0.0 0.0 0.00 0.00 0.00 47 1018.0
20240614091856 17 0.0 0.0 0.00 0.00 0.00 47 1018.0
20240614090854 17 0.0 0.0 0.00 0.00 0.00 48 1018.0
20240614084849 16 0.0 0.0 0.00 0.00 0.00 49 1018.0
20240614081841 16 0.0 0.0 0.00 0.00 0.00 53 1018.0
20240614073831 13 0.0 0.0 0.00 0.00 0.00 56 1018.0
20240614072828 13 0.0 0.0 0.00 0.00 0.00 56 1018.0
20240614071826 13 0.0 0.0 0.00 0.00 0.00 57 1018.0
20240614070823 13 0.0 0.0 0.00 0.00 0.00 57 1018.0
20240614061810 11 0.0 0.0 0.00 0.00 0.00 61 1018.0
20240614060808 11 0.0 0.0 0.00 0.00 0.00 62 1018.0
20240614055805 11 0.0 0.0 0.00 0.00 0.00 62 1019.0
20240614053801 10 0.0 0.0 0.00 0.00 0.00 63 1019.0
20240614052757 10 0.0 0.0 0.00 0.00 0.00 64 1019.0
20240614051755 10 0.0 0.0 0.00 0.00 0.00 64 1019.0
20240614050752 10 0.0 0.0 0.00 0.00 0.00 65 1019.0
20240614044747 9 0.0 0.0 0.00 0.00 0.00 65 1019.0
20240614043745 9 0.0 0.0 0.00 0.00 0.00 65 1019.0
20240614041739 9 0.0 0.0 0.00 0.00 0.00 65 1019.0
20240614035734 8 0.0 0.0 0.00 0.00 0.00 66 1019.0
20240614032727 8 0.0 0.0 0.00 0.00 0.00 66 1019.0
20240614025719 8 0.0 0.0 0.00 0.00 0.00 66 1019.0
20240614023714 8 0.0 0.0 0.00 0.00 0.00 65 1019.0
20240614022711 8 0.0 0.0 0.00 0.00 0.00 65 1019.0
20240614020706 9 0.0 0.0 0.00 0.00 0.00 65 1019.0
20240614015704 9 0.0 0.0 0.00 0.00 0.00 64 1019.0
20240614013658 9 0.0 0.0 0.00 0.00 0.00 63 1020.0
20240614012656 9 0.0 0.0 0.00 0.00 0.00 63 1020.0
20240614010651 9 0.0 0.0 0.00 0.00 0.00 64 1020.0
20240614005648 9 0.0 0.0 0.00 0.00 0.00 63 1020.0
20240614001638 9 0.0 0.0 0.00 0.00 0.00 63 1020.0
20240613235633 9 0.0 0.0 0.00 0.00 0.00 62 1020.0
20240613231622 10 0.0 0.0 0.00 0.00 0.00 61 1020.0
20240613223612 10 0.0 0.0 0.00 0.00 0.00 60 1020.0
20240613222610 10 0.0 0.0 0.00 0.00 0.00 59 1020.0
20240613221607 10 0.0 0.0 0.00 0.00 0.00 59 1020.0
20240613220605 10 0.0 0.0 0.00 0.00 0.00 59 1020.0
20240613215602 10 0.0 0.0 0.00 0.00 0.00 58 1021.0
20240613214600 10 0.0 0.0 0.00 0.00 0.00 58 1020.0
20240613214559 10 0.0 0.0 0.00 0.00 0.00 58 1020.0
20240613213557 10 0.0 0.0 0.00 0.00 0.00 58 1021.0
20240613212554 10 0.0 0.0 0.00 0.00 0.00 57 1021.0
20240613211552 11 0.0 0.0 0.00 0.00 0.00 57 1021.0
20240613210549 11 0.0 0.0 0.00 0.00 0.00 57 1021.0
20240613205547 11 0.0 0.0 0.00 0.00 0.00 56 1021.0
20240613204544 11 0.0 0.0 0.00 0.00 0.00 56 1021.0
20240613202539 12 0.0 0.0 0.00 0.00 0.00 55 1021.0
20240613201536 12 0.0 0.0 0.00 0.00 0.00 53 1021.0
20240613200534 12 0.0 0.0 0.00 0.00 0.00 52 1021.0
20240613195531 13 0.0 0.0 0.00 0.00 0.00 51 1021.0
20240613194529 13 0.0 0.0 0.00 0.00 0.00 50 1021.0
20240613191521 16 0.0 0.0 0.00 0.00 0.00 45 1021.0
20240613190518 17 0.0 0.0 0.00 0.00 0.00 44 1021.0
20240613181506 30 0.0 0.0 0.00 0.00 0.00 27 1020.0
20240613180503 32 0.0 0.0 0.00 0.00 0.00 26 1020.0
20240613175500 33 0.0 0.0 0.00 0.00 0.00 25 1020.0
20240613174458 34 0.0 0.0 0.00 0.00 0.00 24 1020.0
20240613173455 34 0.0 0.0 0.00 0.00 0.00 23 1020.0
20240613172453 33 0.0 0.0 0.00 0.00 0.00 24 1020.0
20240613171450 31 0.0 0.0 0.00 0.00 0.00 27 1020.0
20240613170448 27 0.0 0.0 0.00 0.00 0.00 34 1021.0
20240613165445 21 0.0 0.0 0.00 0.00 0.00 43 1021.0
20240613163441 18 0.0 0.0 0.00 0.00 0.00 48 1021.0
20240613162437 16 0.0 0.0 0.00 0.00 0.00 52 1021.0
20240613161435 15 0.0 0.0 0.00 0.00 0.00 54 1021.0
20240613155430 15 0.0 0.0 0.00 0.00 0.00 54 1021.0
20240613154427 15 0.0 0.0 0.00 0.00 0.00 55 1021.0
20240613153425 15 0.0 0.0 0.00 0.00 0.00 55 1021.0
20240613152422 14 0.0 0.0 0.00 0.00 0.00 55 1021.0
20240613151420 14 0.0 0.0 0.00 0.00 0.00 56 1021.0
20240613142407 15 0.0 0.0 0.00 0.00 0.00 45 1021.0
20240613140401 17 0.0 0.0 0.00 0.00 0.00 40 1020.0
20240613135359 20 0.0 0.0 0.00 0.00 0.00 40 1020.0
20240613134356 21 0.0 0.0 0.00 0.00 0.00 38 1020.0
20240613133354 21 0.0 0.0 0.00 0.00 0.00 37 1020.0